sensor_id;sensor_type;location;lat;lon;timestamp;P1;durP1;ratioP1;P2;durP2;ratioP2
6979;SDS011;3530;52.832;10.680;2023-12-29T00:02:14;4.07;;;2.03;;
6979;SDS011;3530;52.832;10.680;2023-12-29T00:05:00;3.78;;;1.90;;
6979;SDS011;3530;52.832;10.680;2023-12-29T00:07:46;1.92;;;1.83;;
6979;SDS011;3530;52.832;10.680;2023-12-29T00:10:31;1.60;;;1.50;;
6979;SDS011;3530;52.832;10.680;2023-12-29T00:13:17;3.22;;;2.15;;
6979;SDS011;3530;52.832;10.680;2023-12-29T00:16:07;3.95;;;2.00;;
6979;SDS011;3530;52.832;10.680;2023-12-29T00:18:53;2.10;;;1.75;;
6979;SDS011;3530;52.832;10.680;2023-12-29T00:21:39;1.67;;;1.58;;
6979;SDS011;3530;52.832;10.680;2023-12-29T00:24:24;2.33;;;2.05;;
6979;SDS011;3530;52.832;10.680;2023-12-29T00:27:10;9.52;;;4.60;;
6979;SDS011;3530;52.832;10.680;2023-12-29T00:29:56;14.00;;;7.03;;
6979;SDS011;3530;52.832;10.680;2023-12-29T00:32:42;9.48;;;5.43;;
6979;SDS011;3530;52.832;10.680;2023-12-29T00:35:27;4.13;;;3.78;;
6979;SDS011;3530;52.832;10.680;2023-12-29T00:38:13;3.83;;;3.40;;
6979;SDS011;3530;52.832;10.680;2023-12-29T00:40:58;6.00;;;3.20;;
6979;SDS011;3530;52.832;10.680;2023-12-29T00:43:44;3.65;;;3.35;;
6979;SDS011;3530;52.832;10.680;2023-12-29T00:46:30;2.90;;;2.70;;
6979;SDS011;3530;52.832;10.680;2023-12-29T00:49:15;4.15;;;3.65;;
6979;SDS011;3530;52.832;10.680;2023-12-29T00:52:01;7.03;;;3.03;;
6979;SDS011;3530;52.832;10.680;2023-12-29T00:54:48;6.80;;;4.55;;
6979;SDS011;3530;52.832;10.680;2023-12-29T00:57:34;3.70;;;3.40;;
6979;SDS011;3530;52.832;10.680;2023-12-29T01:00:19;7.45;;;4.55;;
6979;SDS011;3530;52.832;10.680;2023-12-29T01:03:05;6.35;;;4.47;;
6979;SDS011;3530;52.832;10.680;2023-12-29T01:05:51;3.13;;;2.65;;
6979;SDS011;3530;52.832;10.680;2023-12-29T01:08:37;5.63;;;2.88;;
6979;SDS011;3530;52.832;10.680;2023-12-29T01:11:22;4.40;;;2.67;;
6979;SDS011;3530;52.832;10.680;2023-12-29T01:14:08;5.45;;;2.40;;
6979;SDS011;3530;52.832;10.680;2023-12-29T01:16:54;4.65;;;2.35;;
6979;SDS011;3530;52.832;10.680;2023-12-29T01:19:39;3.13;;;2.30;;
6979;SDS011;3530;52.832;10.680;2023-12-29T01:22:25;3.08;;;2.47;;
6979;SDS011;3530;52.832;10.680;2023-12-29T01:25:10;3.50;;;1.80;;
6979;SDS011;3530;52.832;10.680;2023-12-29T01:27:56;3.35;;;2.13;;
6979;SDS011;3530;52.832;10.680;2023-12-29T01:30:42;2.97;;;1.98;;
6979;SDS011;3530;52.832;10.680;2023-12-29T01:33:27;6.50;;;2.13;;
6979;SDS011;3530;52.832;10.680;2023-12-29T01:36:17;3.95;;;2.20;;
6979;SDS011;3530;52.832;10.680;2023-12-29T01:39:04;3.53;;;2.10;;
6979;SDS011;3530;52.832;10.680;2023-12-29T01:41:49;2.72;;;2.10;;
6979;SDS011;3530;52.832;10.680;2023-12-29T01:44:35;3.97;;;1.73;;
6979;SDS011;3530;52.832;10.680;2023-12-29T01:47:21;1.75;;;1.65;;
6979;SDS011;3530;52.832;10.680;2023-12-29T01:50:07;1.50;;;1.50;;
6979;SDS011;3530;52.832;10.680;2023-12-29T01:52:54;2.25;;;2.00;;
6979;SDS011;3530;52.832;10.680;2023-12-29T01:55:39;2.20;;;1.67;;
6979;SDS011;3530;52.832;10.680;2023-12-29T01:58:25;2.28;;;1.48;;
6979;SDS011;3530;52.832;10.680;2023-12-29T02:01:11;3.85;;;1.80;;
6979;SDS011;3530;52.832;10.680;2023-12-29T02:03:57;1.42;;;1.40;;
6979;SDS011;3530;52.832;10.680;2023-12-29T02:06:43;2.05;;;1.70;;
6979;SDS011;3530;52.832;10.680;2023-12-29T02:09:29;1.73;;;1.63;;
6979;SDS011;3530;52.832;10.680;2023-12-29T02:12:15;1.80;;;1.60;;
6979;SDS011;3530;52.832;10.680;2023-12-29T02:15:00;1.83;;;1.73;;
6979;SDS011;3530;52.832;10.680;2023-12-29T02:17:55;3.13;;;1.60;;
6979;SDS011;3530;52.832;10.680;2023-12-29T02:20:44;5.68;;;2.10;;
6979;SDS011;3530;52.832;10.680;2023-12-29T02:23:30;4.65;;;1.88;;
6979;SDS011;3530;52.832;10.680;2023-12-29T02:26:16;2.05;;;1.95;;
6979;SDS011;3530;52.832;10.680;2023-12-29T02:29:02;4.03;;;1.83;;
6979;SDS011;3530;52.832;10.680;2023-12-29T02:31:50;3.47;;;2.00;;
6979;SDS011;3530;52.832;10.680;2023-12-29T02:34:38;2.88;;;1.90;;
6979;SDS011;3530;52.832;10.680;2023-12-29T02:37:26;3.80;;;2.25;;
6979;SDS011;3530;52.832;10.680;2023-12-29T02:40:12;3.78;;;2.08;;
6979;SDS011;3530;52.832;10.680;2023-12-29T02:42:57;4.65;;;2.20;;
6979;SDS011;3530;52.832;10.680;2023-12-29T02:45:43;2.30;;;1.58;;
6979;SDS011;3530;52.832;10.680;2023-12-29T02:48:29;2.75;;;2.08;;
6979;SDS011;3530;52.832;10.680;2023-12-29T02:51:14;7.43;;;2.03;;
6979;SDS011;3530;52.832;10.680;2023-12-29T02:54:00;1.92;;;1.80;;
6979;SDS011;3530;52.832;10.680;2023-12-29T02:56:46;2.97;;;2.42;;
6979;SDS011;3530;52.832;10.680;2023-12-29T02:59:31;3.92;;;2.00;;
6979;SDS011;3530;52.832;10.680;2023-12-29T03:02:17;4.85;;;2.17;;
6979;SDS011;3530;52.832;10.680;2023-12-29T03:05:02;3.55;;;2.00;;
6979;SDS011;3530;52.832;10.680;2023-12-29T03:07:48;3.17;;;2.13;;
6979;SDS011;3530;52.832;10.680;2023-12-29T03:10:34;1.85;;;1.65;;
6979;SDS011;3530;52.832;10.680;2023-12-29T03:13:20;3.22;;;1.90;;
6979;SDS011;3530;52.832;10.680;2023-12-29T03:16:05;5.43;;;2.00;;
6979;SDS011;3530;52.832;10.680;2023-12-29T03:18:51;2.45;;;1.77;;
6979;SDS011;3530;52.832;10.680;2023-12-29T03:21:36;4.05;;;2.10;;
6979;SDS011;3530;52.832;10.680;2023-12-29T03:24:22;6.82;;;2.13;;
6979;SDS011;3530;52.832;10.680;2023-12-29T03:27:08;4.22;;;1.85;;
6979;SDS011;3530;52.832;10.680;2023-12-29T03:29:54;3.28;;;1.83;;
6979;SDS011;3530;52.832;10.680;2023-12-29T03:32:39;4.00;;;2.25;;
6979;SDS011;3530;52.832;10.680;2023-12-29T03:35:25;4.32;;;1.90;;
6979;SDS011;3530;52.832;10.680;2023-12-29T03:38:12;2.28;;;2.08;;
6979;SDS011;3530;52.832;10.680;2023-12-29T03:40:58;3.13;;;2.05;;
6979;SDS011;3530;52.832;10.680;2023-12-29T03:43:44;4.40;;;2.00;;
6979;SDS011;3530;52.832;10.680;2023-12-29T03:46:30;1.92;;;1.83;;
6979;SDS011;3530;52.832;10.680;2023-12-29T03:49:15;5.22;;;1.90;;
6979;SDS011;3530;52.832;10.680;2023-12-29T03:52:01;3.13;;;2.00;;
6979;SDS011;3530;52.832;10.680;2023-12-29T03:54:47;2.05;;;1.75;;
6979;SDS011;3530;52.832;10.680;2023-12-29T03:57:32;6.00;;;2.00;;
6979;SDS011;3530;52.832;10.680;2023-12-29T04:00:18;4.53;;;1.80;;
6979;SDS011;3530;52.832;10.680;2023-12-29T04:03:04;2.25;;;1.98;;
6979;SDS011;3530;52.832;10.680;2023-12-29T04:05:49;3.22;;;2.20;;
6979;SDS011;3530;52.832;10.680;2023-12-29T04:08:35;6.20;;;2.50;;
6979;SDS011;3530;52.832;10.680;2023-12-29T04:11:21;3.00;;;1.83;;
6979;SDS011;3530;52.832;10.680;2023-12-29T04:14:07;4.20;;;1.88;;
6979;SDS011;3530;52.832;10.680;2023-12-29T04:16:54;2.30;;;2.10;;
6979;SDS011;3530;52.832;10.680;2023-12-29T04:19:40;1.80;;;1.70;;
6979;SDS011;3530;52.832;10.680;2023-12-29T04:22:26;2.45;;;1.73;;
6979;SDS011;3530;52.832;10.680;2023-12-29T04:25:12;2.13;;;1.92;;
6979;SDS011;3530;52.832;10.680;2023-12-29T04:27:57;2.30;;;1.90;;
6979;SDS011;3530;52.832;10.680;2023-12-29T04:30:43;4.28;;;1.85;;
6979;SDS011;3530;52.832;10.680;2023-12-29T04:33:29;3.10;;;1.92;;
6979;SDS011;3530;52.832;10.680;2023-12-29T04:36:14;1.70;;;1.58;;
6979;SDS011;3530;52.832;10.680;2023-12-29T04:39:00;4.45;;;2.50;;
6979;SDS011;3530;52.832;10.680;2023-12-29T04:41:45;6.65;;;2.17;;
6979;SDS011;3530;52.832;10.680;2023-12-29T04:44:31;5.57;;;1.80;;
6979;SDS011;3530;52.832;10.680;2023-12-29T04:47:17;2.33;;;1.70;;
6979;SDS011;3530;52.832;10.680;2023-12-29T04:50:03;1.85;;;1.58;;
6979;SDS011;3530;52.832;10.680;2023-12-29T04:52:49;4.88;;;2.00;;
6979;SDS011;3530;52.832;10.680;2023-12-29T04:55:34;2.13;;;1.52;;
6979;SDS011;3530;52.832;10.680;2023-12-29T04:58:20;4.38;;;2.17;;
6979;SDS011;3530;52.832;10.680;2023-12-29T05:01:06;1.52;;;1.52;;
6979;SDS011;3530;52.832;10.680;2023-12-29T05:03:53;8.43;;;1.92;;
6979;SDS011;3530;52.832;10.680;2023-12-29T05:06:39;1.98;;;1.73;;
6979;SDS011;3530;52.832;10.680;2023-12-29T05:09:24;1.85;;;1.70;;
6979;SDS011;3530;52.832;10.680;2023-12-29T05:12:10;6.25;;;2.13;;
6979;SDS011;3530;52.832;10.680;2023-12-29T05:14:56;1.70;;;1.60;;
6979;SDS011;3530;52.832;10.680;2023-12-29T05:17:41;1.55;;;1.55;;
6979;SDS011;3530;52.832;10.680;2023-12-29T05:20:27;1.98;;;1.60;;
6979;SDS011;3530;52.832;10.680;2023-12-29T05:23:13;1.25;;;1.25;;
6979;SDS011;3530;52.832;10.680;2023-12-29T05:25:58;1.85;;;1.60;;
6979;SDS011;3530;52.832;10.680;2023-12-29T05:28:44;1.70;;;1.60;;
6979;SDS011;3530;52.832;10.680;2023-12-29T05:31:30;1.98;;;1.70;;
6979;SDS011;3530;52.832;10.680;2023-12-29T05:34:15;2.17;;;1.50;;
6979;SDS011;3530;52.832;10.680;2023-12-29T05:37:01;2.58;;;1.70;;
6979;SDS011;3530;52.832;10.680;2023-12-29T05:39:47;1.40;;;1.40;;
6979;SDS011;3530;52.832;10.680;2023-12-29T05:42:32;1.70;;;1.60;;
6979;SDS011;3530;52.832;10.680;2023-12-29T05:45:18;1.40;;;1.40;;
6979;SDS011;3530;52.832;10.680;2023-12-29T05:48:04;1.52;;;1.42;;
6979;SDS011;3530;52.832;10.680;2023-12-29T05:50:50;4.30;;;1.80;;
6979;SDS011;3530;52.832;10.680;2023-12-29T05:53:36;1.20;;;1.20;;
6979;SDS011;3530;52.832;10.680;2023-12-29T05:56:22;2.38;;;1.50;;
6979;SDS011;3530;52.832;10.680;2023-12-29T05:59:08;3.08;;;1.50;;
6979;SDS011;3530;52.832;10.680;2023-12-29T06:01:53;1.50;;;1.42;;
6979;SDS011;3530;52.832;10.680;2023-12-29T06:04:39;1.40;;;1.40;;
6979;SDS011;3530;52.832;10.680;2023-12-29T06:07:24;6.63;;;1.73;;
6979;SDS011;3530;52.832;10.680;2023-12-29T06:10:11;2.63;;;1.60;;
6979;SDS011;3530;52.832;10.680;2023-12-29T06:12:56;1.58;;;1.48;;
6979;SDS011;3530;52.832;10.680;2023-12-29T06:15:42;1.50;;;1.45;;
6979;SDS011;3530;52.832;10.680;2023-12-29T06:18:28;1.80;;;1.70;;
6979;SDS011;3530;52.832;10.680;2023-12-29T06:21:13;1.30;;;1.20;;
6979;SDS011;3530;52.832;10.680;2023-12-29T06:23:59;4.00;;;1.60;;
6979;SDS011;3530;52.832;10.680;2023-12-29T06:26:45;1.95;;;1.60;;
6979;SDS011;3530;52.832;10.680;2023-12-29T06:29:30;1.33;;;1.25;;
6979;SDS011;3530;52.832;10.680;2023-12-29T06:32:16;1.25;;;1.25;;
6979;SDS011;3530;52.832;10.680;2023-12-29T06:35:02;1.70;;;1.60;;
6979;SDS011;3530;52.832;10.680;2023-12-29T06:37:48;1.55;;;1.55;;
6979;SDS011;3530;52.832;10.680;2023-12-29T06:40:34;1.52;;;1.52;;
6979;SDS011;3530;52.832;10.680;2023-12-29T06:43:19;1.30;;;1.30;;
6979;SDS011;3530;52.832;10.680;2023-12-29T06:46:05;3.08;;;1.90;;
6979;SDS011;3530;52.832;10.680;2023-12-29T06:48:51;3.50;;;1.80;;
6979;SDS011;3530;52.832;10.680;2023-12-29T06:51:37;1.63;;;1.45;;
6979;SDS011;3530;52.832;10.680;2023-12-29T06:54:24;2.92;;;1.80;;
6979;SDS011;3530;52.832;10.680;2023-12-29T06:57:09;2.55;;;1.77;;
6979;SDS011;3530;52.832;10.680;2023-12-29T06:59:55;2.20;;;2.10;;
6979;SDS011;3530;52.832;10.680;2023-12-29T07:02:41;2.65;;;2.08;;
6979;SDS011;3530;52.832;10.680;2023-12-29T07:05:27;1.33;;;1.33;;
6979;SDS011;3530;52.832;10.680;2023-12-29T07:08:13;1.73;;;1.63;;
6979;SDS011;3530;52.832;10.680;2023-12-29T07:10:59;3.80;;;1.85;;
6979;SDS011;3530;52.832;10.680;2023-12-29T07:13:45;2.80;;;1.83;;
6979;SDS011;3530;52.832;10.680;2023-12-29T07:16:31;3.10;;;2.40;;
6979;SDS011;3530;52.832;10.680;2023-12-29T07:19:16;1.92;;;1.83;;
6979;SDS011;3530;52.832;10.680;2023-12-29T07:22:03;2.40;;;2.25;;
6979;SDS011;3530;52.832;10.680;2023-12-29T07:24:50;2.33;;;2.10;;
6979;SDS011;3530;52.832;10.680;2023-12-29T07:27:35;2.30;;;2.10;;
6979;SDS011;3530;52.832;10.680;2023-12-29T07:30:22;5.97;;;2.03;;
6979;SDS011;3530;52.832;10.680;2023-12-29T07:33:07;3.67;;;2.22;;
6979;SDS011;3530;52.832;10.680;2023-12-29T07:35:53;2.30;;;2.20;;
6979;SDS011;3530;52.832;10.680;2023-12-29T07:38:39;2.05;;;1.95;;
6979;SDS011;3530;52.832;10.680;2023-12-29T07:41:24;3.40;;;2.30;;
6979;SDS011;3530;52.832;10.680;2023-12-29T07:44:10;2.10;;;2.00;;
6979;SDS011;3530;52.832;10.680;2023-12-29T07:46:57;2.10;;;2.00;;
6979;SDS011;3530;52.832;10.680;2023-12-29T07:49:43;4.25;;;2.30;;
6979;SDS011;3530;52.832;10.680;2023-12-29T07:52:29;2.55;;;2.28;;
6979;SDS011;3530;52.832;10.680;2023-12-29T07:55:15;1.77;;;1.60;;
6979;SDS011;3530;52.832;10.680;2023-12-29T07:58:04;2.10;;;1.98;;
6979;SDS011;3530;52.832;10.680;2023-12-29T08:00:49;3.72;;;1.60;;
6979;SDS011;3530;52.832;10.680;2023-12-29T08:03:35;2.33;;;2.10;;
6979;SDS011;3530;52.832;10.680;2023-12-29T08:06:21;2.17;;;1.65;;
6979;SDS011;3530;52.832;10.680;2023-12-29T08:09:07;3.38;;;2.03;;
6979;SDS011;3530;52.832;10.680;2023-12-29T08:11:53;1.92;;;1.83;;
6979;SDS011;3530;52.832;10.680;2023-12-29T08:14:38;2.30;;;2.00;;
6979;SDS011;3530;52.832;10.680;2023-12-29T08:17:24;4.60;;;2.45;;
6979;SDS011;3530;52.832;10.680;2023-12-29T08:20:10;3.55;;;1.95;;
6979;SDS011;3530;52.832;10.680;2023-12-29T08:22:56;2.22;;;2.03;;
6979;SDS011;3530;52.832;10.680;2023-12-29T08:25:48;6.80;;;2.28;;
6979;SDS011;3530;52.832;10.680;2023-12-29T08:28:33;2.67;;;2.10;;
6979;SDS011;3530;52.832;10.680;2023-12-29T08:31:19;1.70;;;1.60;;
6979;SDS011;3530;52.832;10.680;2023-12-29T08:34:04;5.22;;;2.00;;
6979;SDS011;3530;52.832;10.680;2023-12-29T08:36:50;1.50;;;1.40;;
6979;SDS011;3530;52.832;10.680;2023-12-29T08:39:36;1.95;;;1.55;;
6979;SDS011;3530;52.832;10.680;2023-12-29T08:42:21;1.60;;;1.50;;
6979;SDS011;3530;52.832;10.680;2023-12-29T08:45:07;2.88;;;2.13;;
6979;SDS011;3530;52.832;10.680;2023-12-29T08:47:53;2.08;;;1.75;;
6979;SDS011;3530;52.832;10.680;2023-12-29T08:50:39;5.15;;;2.20;;
6979;SDS011;3530;52.832;10.680;2023-12-29T08:53:25;5.10;;;2.03;;
6979;SDS011;3530;52.832;10.680;2023-12-29T08:56:11;1.83;;;1.75;;
6979;SDS011;3530;52.832;10.680;2023-12-29T08:58:56;3.47;;;1.70;;
6979;SDS011;3530;52.832;10.680;2023-12-29T09:01:42;4.07;;;2.22;;
6979;SDS011;3530;52.832;10.680;2023-12-29T09:04:27;3.53;;;2.10;;
6979;SDS011;3530;52.832;10.680;2023-12-29T09:07:13;2.85;;;1.95;;
6979;SDS011;3530;52.832;10.680;2023-12-29T09:09:59;2.35;;;2.15;;
6979;SDS011;3530;52.832;10.680;2023-12-29T09:12:47;4.55;;;2.20;;
6979;SDS011;3530;52.832;10.680;2023-12-29T09:15:32;3.20;;;2.78;;
6979;SDS011;3530;52.832;10.680;2023-12-29T09:18:19;4.07;;;2.50;;
6979;SDS011;3530;52.832;10.680;2023-12-29T09:21:05;7.38;;;2.17;;
6979;SDS011;3530;52.832;10.680;2023-12-29T09:23:51;1.73;;;1.63;;
6979;SDS011;3530;52.832;10.680;2023-12-29T09:26:37;2.20;;;2.10;;
6979;SDS011;3530;52.832;10.680;2023-12-29T09:29:23;4.78;;;2.35;;
6979;SDS011;3530;52.832;10.680;2023-12-29T09:32:08;5.35;;;3.20;;
6979;SDS011;3530;52.832;10.680;2023-12-29T09:34:54;6.68;;;2.92;;
6979;SDS011;3530;52.832;10.680;2023-12-29T09:37:40;8.75;;;2.50;;
6979;SDS011;3530;52.832;10.680;2023-12-29T09:40:25;4.63;;;2.67;;
6979;SDS011;3530;52.832;10.680;2023-12-29T09:43:11;4.85;;;2.50;;
6979;SDS011;3530;52.832;10.680;2023-12-29T09:45:58;3.00;;;2.63;;
6979;SDS011;3530;52.832;10.680;2023-12-29T09:48:45;4.80;;;2.95;;
6979;SDS011;3530;52.832;10.680;2023-12-29T09:51:32;9.15;;;2.75;;
6979;SDS011;3530;52.832;10.680;2023-12-29T09:54:17;5.35;;;2.15;;
6979;SDS011;3530;52.832;10.680;2023-12-29T09:57:03;6.88;;;2.83;;
6979;SDS011;3530;52.832;10.680;2023-12-29T09:59:49;3.20;;;2.70;;
6979;SDS011;3530;52.832;10.680;2023-12-29T10:02:38;3.80;;;3.15;;
6979;SDS011;3530;52.832;10.680;2023-12-29T10:05:23;4.75;;;2.90;;
6979;SDS011;3530;52.832;10.680;2023-12-29T10:08:09;4.63;;;3.22;;
6979;SDS011;3530;52.832;10.680;2023-12-29T10:10:55;2.65;;;2.47;;
6979;SDS011;3530;52.832;10.680;2023-12-29T10:13:43;4.38;;;2.55;;
6979;SDS011;3530;52.832;10.680;2023-12-29T10:20:01;5.80;;;2.60;;
6979;SDS011;3530;52.832;10.680;2023-12-29T10:22:41;5.50;;;2.55;;
6979;SDS011;3530;52.832;10.680;2023-12-29T10:25:34;3.58;;;2.55;;
6979;SDS011;3530;52.832;10.680;2023-12-29T10:28:20;4.40;;;3.05;;
6979;SDS011;3530;52.832;10.680;2023-12-29T10:31:06;8.93;;;2.38;;
6979;SDS011;3530;52.832;10.680;2023-12-29T10:33:52;5.70;;;2.65;;
6979;SDS011;3530;52.832;10.680;2023-12-29T10:36:47;2.40;;;2.13;;
6979;SDS011;3530;52.832;10.680;2023-12-29T10:39:37;8.38;;;2.80;;
6979;SDS011;3530;52.832;10.680;2023-12-29T10:42:23;4.85;;;2.85;;
6979;SDS011;3530;52.832;10.680;2023-12-29T10:45:09;5.70;;;2.33;;
6979;SDS011;3530;52.832;10.680;2023-12-29T10:47:55;4.82;;;2.30;;
6979;SDS011;3530;52.832;10.680;2023-12-29T10:50:44;1.48;;;1.48;;
6979;SDS011;3530;52.832;10.680;2023-12-29T10:53:32;3.95;;;2.28;;
6979;SDS011;3530;52.832;10.680;2023-12-29T10:56:19;2.33;;;2.05;;
6979;SDS011;3530;52.832;10.680;2023-12-29T10:59:05;4.47;;;2.10;;
6979;SDS011;3530;52.832;10.680;2023-12-29T11:01:51;2.20;;;2.00;;
6979;SDS011;3530;52.832;10.680;2023-12-29T11:04:38;3.85;;;1.80;;
6979;SDS011;3530;52.832;10.680;2023-12-29T11:10:19;2.72;;;1.73;;
6979;SDS011;3530;52.832;10.680;2023-12-29T11:13:06;4.82;;;1.63;;
6979;SDS011;3530;52.832;10.680;2023-12-29T11:15:52;3.38;;;1.70;;
6979;SDS011;3530;52.832;10.680;2023-12-29T11:18:40;3.40;;;1.70;;
6979;SDS011;3530;52.832;10.680;2023-12-29T11:21:26;3.58;;;1.73;;
6979;SDS011;3530;52.832;10.680;2023-12-29T11:24:15;1.40;;;1.30;;
6979;SDS011;3530;52.832;10.680;2023-12-29T11:27:01;1.30;;;1.30;;
6979;SDS011;3530;52.832;10.680;2023-12-29T11:29:47;1.85;;;1.60;;
6979;SDS011;3530;52.832;10.680;2023-12-29T11:35:34;1.38;;;1.38;;
6979;SDS011;3530;52.832;10.680;2023-12-29T11:39:15;2.55;;;1.65;;
6979;SDS011;3530;52.832;10.680;2023-12-29T11:41:47;1.25;;;1.25;;
6979;SDS011;3530;52.832;10.680;2023-12-29T11:44:37;1.70;;;1.60;;
6979;SDS011;3530;52.832;10.680;2023-12-29T11:47:36;1.27;;;1.27;;
6979;SDS011;3530;52.832;10.680;2023-12-29T11:50:32;1.70;;;1.60;;
6979;SDS011;3530;52.832;10.680;2023-12-29T11:53:31;1.48;;;1.38;;
6979;SDS011;3530;52.832;10.680;2023-12-29T11:56:18;2.97;;;1.70;;
6979;SDS011;3530;52.832;10.680;2023-12-29T12:02:01;1.95;;;1.80;;
6979;SDS011;3530;52.832;10.680;2023-12-29T12:04:51;1.50;;;1.40;;
6979;SDS011;3530;52.832;10.680;2023-12-29T12:13:12;1.10;;;1.10;;
6979;SDS011;3530;52.832;10.680;2023-12-29T12:15:58;1.58;;;1.48;;
6979;SDS011;3530;52.832;10.680;2023-12-29T12:18:43;6.63;;;2.08;;
6979;SDS011;3530;52.832;10.680;2023-12-29T12:21:29;1.40;;;1.40;;
6979;SDS011;3530;52.832;10.680;2023-12-29T12:24:15;3.03;;;1.50;;
6979;SDS011;3530;52.832;10.680;2023-12-29T12:27:03;3.58;;;1.80;;
6979;SDS011;3530;52.832;10.680;2023-12-29T12:29:55;1.25;;;1.25;;
6979;SDS011;3530;52.832;10.680;2023-12-29T12:32:44;3.05;;;1.40;;
6979;SDS011;3530;52.832;10.680;2023-12-29T12:35:29;1.10;;;1.10;;
6979;SDS011;3530;52.832;10.680;2023-12-29T12:38:16;1.63;;;1.52;;
6979;SDS011;3530;52.832;10.680;2023-12-29T12:41:10;1.10;;;1.10;;
6979;SDS011;3530;52.832;10.680;2023-12-29T12:44:03;4.72;;;1.45;;
6979;SDS011;3530;52.832;10.680;2023-12-29T12:47:01;1.25;;;1.23;;
6979;SDS011;3530;52.832;10.680;2023-12-29T12:49:52;1.40;;;1.30;;
6979;SDS011;3530;52.832;10.680;2023-12-29T12:52:37;1.23;;;1.23;;
6979;SDS011;3530;52.832;10.680;2023-12-29T12:55:24;2.45;;;1.48;;
6979;SDS011;3530;52.832;10.680;2023-12-29T12:58:09;1.20;;;1.20;;
6979;SDS011;3530;52.832;10.680;2023-12-29T13:00:56;1.48;;;1.48;;
6979;SDS011;3530;52.832;10.680;2023-12-29T13:03:42;1.92;;;1.92;;
6979;SDS011;3530;52.832;10.680;2023-12-29T13:06:32;12.90;;;4.05;;
6979;SDS011;3530;52.832;10.680;2023-12-29T13:09:18;7.40;;;2.42;;
6979;SDS011;3530;52.832;10.680;2023-12-29T13:12:11;1.90;;;1.80;;
6979;SDS011;3530;52.832;10.680;2023-12-29T13:15:07;10.05;;;1.83;;
6979;SDS011;3530;52.832;10.680;2023-12-29T13:17:56;2.05;;;1.63;;
6979;SDS011;3530;52.832;10.680;2023-12-29T13:20:46;1.95;;;1.30;;
6979;SDS011;3530;52.832;10.680;2023-12-29T13:23:32;1.63;;;1.40;;
6979;SDS011;3530;52.832;10.680;2023-12-29T13:26:18;1.30;;;1.30;;
6979;SDS011;3530;52.832;10.680;2023-12-29T13:29:05;1.25;;;1.25;;
6979;SDS011;3530;52.832;10.680;2023-12-29T13:31:54;1.98;;;1.60;;
6979;SDS011;3530;52.832;10.680;2023-12-29T13:37:50;1.33;;;1.33;;
6979;SDS011;3530;52.832;10.680;2023-12-29T13:40:47;1.40;;;1.40;;
6979;SDS011;3530;52.832;10.680;2023-12-29T13:43:47;1.70;;;1.60;;
6979;SDS011;3530;52.832;10.680;2023-12-29T13:46:33;1.40;;;1.40;;
6979;SDS011;3530;52.832;10.680;2023-12-29T13:49:19;1.10;;;1.10;;
6979;SDS011;3530;52.832;10.680;2023-12-29T13:52:05;1.23;;;1.23;;
6979;SDS011;3530;52.832;10.680;2023-12-29T13:54:51;1.25;;;1.25;;
6979;SDS011;3530;52.832;10.680;2023-12-29T13:57:37;1.10;;;1.10;;
6979;SDS011;3530;52.832;10.680;2023-12-29T14:00:24;1.30;;;1.30;;
6979;SDS011;3530;52.832;10.680;2023-12-29T14:03:14;1.30;;;1.30;;
6979;SDS011;3530;52.832;10.680;2023-12-29T14:06:07;1.25;;;1.25;;
6979;SDS011;3530;52.832;10.680;2023-12-29T14:08:53;1.30;;;1.30;;
6979;SDS011;3530;52.832;10.680;2023-12-29T14:11:43;1.50;;;1.40;;
6979;SDS011;3530;52.832;10.680;2023-12-29T14:14:37;2.65;;;2.55;;
6979;SDS011;3530;52.832;10.680;2023-12-29T14:17:22;4.93;;;4.53;;
6979;SDS011;3530;52.832;10.680;2023-12-29T14:20:08;3.47;;;3.17;;
6979;SDS011;3530;52.832;10.680;2023-12-29T14:23:01;7.40;;;6.25;;
6979;SDS011;3530;52.832;10.680;2023-12-29T14:25:47;4.25;;;3.85;;
6979;SDS011;3530;52.832;10.680;2023-12-29T14:28:33;4.25;;;3.92;;
6979;SDS011;3530;52.832;10.680;2023-12-29T14:31:18;5.40;;;4.90;;
6979;SDS011;3530;52.832;10.680;2023-12-29T14:34:05;3.83;;;3.53;;
6979;SDS011;3530;52.832;10.680;2023-12-29T14:36:51;5.47;;;4.95;;
6979;SDS011;3530;52.832;10.680;2023-12-29T14:39:36;8.32;;;5.97;;
6979;SDS011;3530;52.832;10.680;2023-12-29T14:42:22;5.25;;;4.75;;
6979;SDS011;3530;52.832;10.680;2023-12-29T14:45:08;6.45;;;5.38;;
6979;SDS011;3530;52.832;10.680;2023-12-29T14:47:54;10.02;;;5.65;;
6979;SDS011;3530;52.832;10.680;2023-12-29T14:50:40;10.73;;;7.43;;
6979;SDS011;3530;52.832;10.680;2023-12-29T14:53:30;5.32;;;4.75;;
6979;SDS011;3530;52.832;10.680;2023-12-29T14:56:16;5.88;;;4.88;;
6979;SDS011;3530;52.832;10.680;2023-12-29T14:59:02;9.90;;;5.75;;
6979;SDS011;3530;52.832;10.680;2023-12-29T15:01:47;3.97;;;3.63;;
6979;SDS011;3530;52.832;10.680;2023-12-29T15:04:34;5.57;;;3.70;;
6979;SDS011;3530;52.832;10.680;2023-12-29T15:07:19;5.55;;;4.13;;
6979;SDS011;3530;52.832;10.680;2023-12-29T15:10:05;7.20;;;5.00;;
6979;SDS011;3530;52.832;10.680;2023-12-29T15:12:52;4.53;;;3.38;;
6979;SDS011;3530;52.832;10.680;2023-12-29T15:15:37;4.03;;;3.63;;
6979;SDS011;3530;52.832;10.680;2023-12-29T15:18:23;3.42;;;3.15;;
6979;SDS011;3530;52.832;10.680;2023-12-29T15:21:08;4.18;;;3.83;;
6979;SDS011;3530;52.832;10.680;2023-12-29T15:23:54;4.93;;;4.43;;
6979;SDS011;3530;52.832;10.680;2023-12-29T15:26:40;4.13;;;3.75;;
6979;SDS011;3530;52.832;10.680;2023-12-29T15:29:26;3.40;;;3.10;;
6979;SDS011;3530;52.832;10.680;2023-12-29T15:32:14;5.25;;;3.03;;
6979;SDS011;3530;52.832;10.680;2023-12-29T15:35:00;4.45;;;4.00;;
6979;SDS011;3530;52.832;10.680;2023-12-29T15:37:46;11.25;;;6.03;;
6979;SDS011;3530;52.832;10.680;2023-12-29T15:40:31;10.55;;;6.53;;
6979;SDS011;3530;52.832;10.680;2023-12-29T15:43:17;11.02;;;6.50;;
6979;SDS011;3530;52.832;10.680;2023-12-29T15:46:03;5.85;;;4.57;;
6979;SDS011;3530;52.832;10.680;2023-12-29T15:48:49;5.03;;;3.40;;
6979;SDS011;3530;52.832;10.680;2023-12-29T15:51:34;5.05;;;4.55;;
6979;SDS011;3530;52.832;10.680;2023-12-29T15:54:20;5.13;;;4.20;;
6979;SDS011;3530;52.832;10.680;2023-12-29T15:57:06;5.28;;;4.80;;
6979;SDS011;3530;52.832;10.680;2023-12-29T15:59:53;4.35;;;3.55;;
6979;SDS011;3530;52.832;10.680;2023-12-29T16:02:39;3.83;;;3.50;;
6979;SDS011;3530;52.832;10.680;2023-12-29T16:05:25;6.05;;;3.53;;
6979;SDS011;3530;52.832;10.680;2023-12-29T16:08:11;4.10;;;3.70;;
6979;SDS011;3530;52.832;10.680;2023-12-29T16:11:00;4.20;;;3.10;;
6979;SDS011;3530;52.832;10.680;2023-12-29T16:13:45;3.95;;;3.60;;
6979;SDS011;3530;52.832;10.680;2023-12-29T16:16:31;3.05;;;2.95;;
6979;SDS011;3530;52.832;10.680;2023-12-29T16:19:17;4.57;;;3.47;;
6979;SDS011;3530;52.832;10.680;2023-12-29T16:22:03;3.10;;;2.90;;
6979;SDS011;3530;52.832;10.680;2023-12-29T16:24:49;3.35;;;3.13;;
6979;SDS011;3530;52.832;10.680;2023-12-29T16:27:36;8.70;;;5.32;;
6979;SDS011;3530;52.832;10.680;2023-12-29T16:30:21;4.10;;;2.65;;
6979;SDS011;3530;52.832;10.680;2023-12-29T16:33:07;6.35;;;4.07;;
6979;SDS011;3530;52.832;10.680;2023-12-29T16:35:53;12.75;;;7.85;;
6979;SDS011;3530;52.832;10.680;2023-12-29T16:38:45;4.70;;;3.95;;
6979;SDS011;3530;52.832;10.680;2023-12-29T16:41:35;5.22;;;4.55;;
6979;SDS011;3530;52.832;10.680;2023-12-29T16:44:20;4.32;;;3.53;;
6979;SDS011;3530;52.832;10.680;2023-12-29T16:47:06;3.63;;;3.33;;
6979;SDS011;3530;52.832;10.680;2023-12-29T16:49:52;4.30;;;3.92;;
6979;SDS011;3530;52.832;10.680;2023-12-29T16:52:37;3.65;;;3.38;;
6979;SDS011;3530;52.832;10.680;2023-12-29T16:55:23;5.82;;;5.32;;
6979;SDS011;3530;52.832;10.680;2023-12-29T16:58:09;4.97;;;4.22;;
6979;SDS011;3530;52.832;10.680;2023-12-29T17:00:54;3.80;;;3.50;;
6979;SDS011;3530;52.832;10.680;2023-12-29T17:03:40;3.20;;;3.00;;
6979;SDS011;3530;52.832;10.680;2023-12-29T17:06:26;3.70;;;3.50;;
6979;SDS011;3530;52.832;10.680;2023-12-29T17:09:12;3.53;;;3.28;;
6979;SDS011;3530;52.832;10.680;2023-12-29T17:11:58;3.30;;;3.10;;
6979;SDS011;3530;52.832;10.680;2023-12-29T17:14:44;4.15;;;3.75;;
6979;SDS011;3530;52.832;10.680;2023-12-29T17:17:30;5.85;;;5.32;;
6979;SDS011;3530;52.832;10.680;2023-12-29T17:20:19;4.60;;;4.10;;